Waterloo, IA

7:05 PM CDT on August 29, 2016 (GMT -0500)
Waterloo Municipal | | Change Station

Elev 873 ft 42.55 °N, 92.40 °W | Updated 11 minutes ago

Scattered Clouds
Scattered Clouds
71 °F
Feels Like 71 °F
N
8
Wind Variable Wind from North

Today
High -- | Low -- °F
--% Chance of Precip.
Yesterday
High -- | Low -- °F
Precip. -- in
Pressure 30.16 in
Visibility 10.0 miles
Clouds Few 4600 ft
Scattered Clouds 9000 ft
Scattered Clouds 12000 ft
Dew Point 68 °F
Humidity 90%
Rainfall 0.02 in
Snow Depth Not available.
6:31 AM 7:47 PM
Waning Crescent, 6% visible
METAR KALO 292354Z AUTO 35007KT 10SM FEW046 SCT090 SCT120 22/20 A3017 RMK AO2 RAE00B32E41 SLP212 P0000 60002 T02170200 10272 20211 53000
Pressure 30.16 in
Visibility 10.0 miles
Clouds Few 4600 ft
Scattered Clouds 9000 ft
Scattered Clouds 12000 ft
Dew Point 68 °F
Humidity 90%
Rainfall 0.02 in
Snow Depth Not available.
6:31 AM 7:47 PM
Waning Crescent, 6% visible
METAR KALO 292354Z AUTO 35007KT 10SM FEW046 SCT090 SCT120 22/20 A3017 RMK AO2 RAE00B32E41 SLP212 P0000 60002 T02170200 10272 20211 53000

10-Day Weather Forecast

Almanac

Astronomy

Aug. 29, 2016 Rise Set
Actual Time
Civil Twilight
Nautical Twilight
Astronomical Twilight
Moon
Length of Visible Light
Length of Day
Tomorrow will be .
, % of the Moon is Illuminated

Today's Extremes

State Highs State Lows

Community

WunderPhotos

Upload Photos

1,935,699 photos uploaded!

WunderBlog® & News

Nearby

Air Quality

  Air Quality AQ Index Pollutant
Not available.

Snow Depth

Station Depth Elevation

Earthquake Activity

City Distance Mag. Time & Date
Minimum magnitude displayed is 2.5.

Coastal Water Temperatures

Place Temperature

Stations

Nearby Weather Stations

Station Location Temp. Windchill Dew Point Humidity Wind Precip. Elev Updated Type
                   

Watches & Warnings

There are currently no watches in effect.